Time;durP1;ratioP1;P1;durP2;ratioP2;P2;SDS_P1;SDS_P2;PMS_P1;PMS_P2;Temp;Humidity;BMP_temperature;BMP_pressure;BME280_temperature;BME280_humidity;BME280_pressure;Samples;Min_cycle;Max_cycle;Signal;HPM_P1;HPM_P2
2022/02/27 00:00:32;;;;;;;;;;;;;;;30.49;19.39;101698.56;5074773;28;942;-37
2022/02/27 00:02:57;;;;;;;;;;;;;;;30.22;20.20;101699.97;5076104;28;787;-37
2022/02/27 00:05:23;;;;;;;;;;;;;;;31.31;19.13;101702.50;5076079;28;881;-36
2022/02/27 00:07:48;;;;;;;;;;;;;;;31.49;19.05;101702.13;5076202;28;1960;-36
2022/02/27 00:10:14;;;;;;;;;;;;;;;30.99;19.05;101700.84;5076554;28;826;-36
2022/02/27 00:12:39;;;;;;;;;;;;;;;30.58;19.42;101704.75;5075755;28;805;-36
2022/02/27 00:15:05;;;;;;;;;;;;;;;30.49;19.62;101697.72;5091233;28;837;-37
2022/02/27 00:17:31;;;;;;;;;;;;;;;31.12;19.55;101700.19;5074284;28;861;-37
2022/02/27 00:19:56;;;;;;;;;;;;;;;31.37;19.42;101697.16;5069595;28;746;-37
2022/02/27 00:22:21;;;;;;;;;;;;;;;31.47;18.96;101698.75;5075798;28;812;-36
2022/02/27 00:24:47;;;;;;;;;;;;;;;30.80;19.54;101704.91;5075826;28;892;-36
2022/02/27 00:27:12;;;;;;;;;;;;;;;30.58;19.62;101695.78;5073677;28;1969;-36
2022/02/27 00:29:37;;;;;;;;;;;;;;;31.40;19.21;101699.53;5076128;28;874;-36
2022/02/27 00:32:03;;;;;;;;;;;;;;;31.57;19.14;101691.16;5075499;28;1655;-37
2022/02/27 00:34:30;;;;;;;;;;;;;;;30.87;18.99;101692.28;5073056;28;796;-36
2022/02/27 00:36:55;;;;;;;;;;;;;;;30.97;19.25;101688.44;5074206;28;765;-37
2022/02/27 00:39:20;;;;;;;;;;;;;;;31.29;19.33;101686.38;5075872;28;828;-37
2022/02/27 00:41:46;;;;;;;;;;;;;;;31.44;19.13;101677.41;5075954;28;825;-36
2022/02/27 00:44:11;;;;;;;;;;;;;;;31.60;18.89;101681.75;5075957;28;811;-37
2022/02/27 00:46:36;;;;;;;;;;;;;;;30.85;19.30;101677.19;5074237;28;1898;-37
2022/02/27 00:49:02;;;;;;;;;;;;;;;30.74;19.42;101675.75;5075487;28;851;-36
2022/02/27 00:51:27;;;;;;;;;;;;;;;31.37;19.42;101667.25;5079934;28;996;-36
2022/02/27 00:53:52;;;;;;;;;;;;;;;31.51;19.10;101667.44;5079530;28;834;-37
2022/02/27 00:56:19;;;;;;;;;;;;;;;31.34;18.85;101667.63;5079133;28;1056;-36
2022/02/27 00:58:50;;;;;;;;;;;;;;;30.99;19.29;101662.78;5079418;28;887;-37
2022/02/27 01:01:15;;;;;;;;;;;;;;;31.16;19.26;101663.41;5075658;28;894;-37
2022/02/27 01:03:41;;;;;;;;;;;;;;;31.27;19.40;101663.97;5079469;28;880;-36
2022/02/27 01:06:06;;;;;;;;;;;;;;;30.34;19.26;101662.38;5079187;28;853;-36
2022/02/27 01:08:31;;;;;;;;;;;;;;;30.90;18.49;101661.19;5078844;28;1906;-37
2022/02/27 01:10:57;;;;;;;;;;;;;;;30.00;17.95;101668.03;5079525;28;773;-36
2022/02/27 01:13:22;;;;;;;;;;;;;;;29.62;18.62;101671.50;5079235;28;938;-37
2022/02/27 01:15:47;;;;;;;;;;;;;;;29.51;18.79;101675.41;5078731;28;840;-35
2022/02/27 01:18:13;;;;;;;;;;;;;;;30.10;18.83;101675.94;5079040;28;761;-37
2022/02/27 01:20:38;;;;;;;;;;;;;;;30.54;17.94;101674.44;5079058;28;922;-37
2022/02/27 01:23:03;;;;;;;;;;;;;;;30.99;17.60;101668.22;5077191;28;867;-36
2022/02/27 01:25:29;;;;;;;;;;;;;;;29.66;18.31;101670.13;5078715;28;885;-36
2022/02/27 01:27:55;;;;;;;;;;;;;;;29.34;18.62;101666.53;5078908;28;1901;-36
2022/02/27 01:30:20;;;;;;;;;;;;;;;29.69;18.93;101669.78;5078611;28;927;-36
2022/02/27 01:32:45;;;;;;;;;;;;;;;30.24;18.13;101668.94;5078783;28;1114;-36
2022/02/27 01:35:11;;;;;;;;;;;;;;;30.41;18.00;101672.31;5078996;28;821;-36
2022/02/27 01:37:36;;;;;;;;;;;;;;;29.66;18.43;101661.97;5078716;28;730;-37
2022/02/27 01:40:02;;;;;;;;;;;;;;;29.45;18.67;101659.88;5077949;28;863;-41
2022/02/27 01:42:27;;;;;;;;;;;;;;;29.76;18.78;101659.03;5078889;28;826;-42
2022/02/27 01:44:52;;;;;;;;;;;;;;;30.07;18.17;101657.31;5078774;28;785;-42
2022/02/27 01:47:18;;;;;;;;;;;;;;;30.08;18.34;101663.59;5077797;28;1975;-42
2022/02/27 01:49:47;;;;;;;;;;;;;;;29.69;18.14;101663.50;5078755;28;853;-43
2022/02/27 01:52:12;;;;;;;;;;;;;;;29.22;18.68;101649.81;5078363;28;737;-43
2022/02/27 01:54:38;;;;;;;;;;;;;;;29.51;18.70;101659.16;5078812;28;831;-43
2022/02/27 01:57:03;;;;;;;;;;;;;;;30.11;18.04;101661.38;5078265;28;897;-43
2022/02/27 01:59:29;;;;;;;;;;;;;;;30.29;17.91;101652.09;5077178;28;1121;-43
2022/02/27 02:01:54;;;;;;;;;;;;;;;30.74;17.53;101654.03;5077122;28;945;-42
2022/02/27 02:04:19;;;;;;;;;;;;;;;30.87;17.31;101659.69;5071526;28;851;-42
2022/02/27 02:06:45;;;;;;;;;;;;;;;30.58;17.41;101663.19;5078366;28;1890;-42
2022/02/27 02:09:10;;;;;;;;;;;;;;;29.68;18.04;101662.66;5078186;28;801;-42
2022/02/27 02:11:36;;;;;;;;;;;;;;;29.46;18.53;101656.16;5076768;28;977;-42
2022/02/27 02:14:02;;;;;;;;;;;;;;;29.50;18.64;101664.75;5078263;28;805;-42
2022/02/27 02:16:37;;;;;;;;;;;;;;;30.40;17.78;101657.06;5065717;28;1018;-44
2022/02/27 02:19:02;;;;;;;;;;;;;;;30.55;17.59;101670.69;5072887;28;737;-43
2022/02/27 02:21:28;;;;;;;;;;;;;;;30.92;17.34;101668.13;5075458;28;873;-42
2022/02/27 02:23:53;;;;;;;;;;;;;;;30.97;17.18;101670.28;5078068;28;805;-42
2022/02/27 02:26:18;;;;;;;;;;;;;;;30.13;17.84;101675.56;5071314;28;1965;-42
2022/02/27 02:28:44;;;;;;;;;;;;;;;29.58;18.22;101675.56;5076216;28;874;-42
2022/02/27 02:31:09;;;;;;;;;;;;;;;29.53;18.49;101677.97;5075625;28;849;-42
2022/02/27 02:33:35;;;;;;;;;;;;;;;30.41;17.73;101675.03;5077695;28;1052;-43
2022/02/27 02:36:00;;;;;;;;;;;;;;;30.36;17.83;101674.78;5077911;28;786;-42
2022/02/27 02:38:26;;;;;;;;;;;;;;;30.61;17.53;101674.53;5077364;28;904;-42
2022/02/27 02:40:51;;;;;;;;;;;;;;;29.46;18.44;101670.53;5077529;28;838;-42
2022/02/27 02:43:16;;;;;;;;;;;;;;;29.27;18.37;101673.66;5074443;28;880;-42
2022/02/27 02:45:42;;;;;;;;;;;;;;;29.96;18.35;101671.31;5073431;28;883;-42
2022/02/27 02:48:07;;;;;;;;;;;;;;;30.26;18.02;101671.44;5074628;28;1977;-42
2022/02/27 02:50:32;;;;;;;;;;;;;;;30.17;18.16;101678.78;5077485;28;773;-42
2022/02/27 02:52:58;;;;;;;;;;;;;;;30.73;17.48;101677.63;5077775;28;813;-42
2022/02/27 02:55:23;;;;;;;;;;;;;;;30.89;17.32;101681.25;5069398;28;849;-42
2022/02/27 02:57:48;;;;;;;;;;;;;;;30.58;17.40;101695.78;5077688;28;805;-42
2022/02/27 03:00:14;;;;;;;;;;;;;;;29.65;18.01;101690.13;5077521;28;815;-42
2022/02/27 03:02:39;;;;;;;;;;;;;;;29.43;18.35;101692.56;5072425;28;1422;-41
2022/02/27 03:05:05;;;;;;;;;;;;;;;29.95;18.04;101692.16;5077286;28;804;-42
2022/02/27 03:07:31;;;;;;;;;;;;;;;30.74;17.49;101695.63;5074214;28;1971;-43
2022/02/27 03:09:57;;;;;;;;;;;;;;;30.16;17.92;101698.81;5076581;28;837;-41
2022/02/27 03:12:23;;;;;;;;;;;;;;;29.60;18.16;101692.53;5076490;28;766;-42
2022/02/27 03:14:49;;;;;;;;;;;;;;;29.19;18.65;101690.81;5076783;28;826;-42
2022/02/27 03:17:14;;;;;;;;;;;;;;;29.06;18.93;101692.19;5076518;28;761;-42
2022/02/27 03:19:39;;;;;;;;;;;;;;;30.10;17.90;101689.50;5076977;28;896;-42
2022/02/27 03:22:05;;;;;;;;;;;;;;;30.37;17.88;101687.31;5070501;28;837;-41
2022/02/27 03:24:30;;;;;;;;;;;;;;;30.74;17.46;101675.75;5076479;28;936;-42
2022/02/27 03:26:55;;;;;;;;;;;;;;;30.82;17.41;101683.84;5076665;28;1905;-42
2022/02/27 03:29:20;;;;;;;;;;;;;;;30.94;17.08;101683.41;5076672;28;769;-43
2022/02/27 03:31:46;;;;;;;;;;;;;;;30.41;17.43;101687.78;5074013;28;1225;-42
2022/02/27 03:34:11;;;;;;;;;;;;;;;29.68;17.96;101678.06;5074417;28;905;-42
2022/02/27 03:36:36;;;;;;;;;;;;;;;29.41;18.53;101683.75;5076352;28;825;-41
2022/02/27 03:39:01;;;;;;;;;;;;;;;30.31;18.06;101678.00;5076933;28;761;-42
2022/02/27 03:41:27;;;;;;;;;;;;;;;30.20;17.75;101673.00;5076393;28;842;-43
2022/02/27 03:43:52;;;;;;;;;;;;;;;30.59;17.57;101673.03;5076445;28;813;-42
2022/02/27 03:46:17;;;;;;;;;;;;;;;29.48;18.48;101669.53;5075927;28;930;-42
2022/02/27 03:48:43;;;;;;;;;;;;;;;28.96;19.03;101665.25;5076471;28;1975;-42
2022/02/27 03:51:08;;;;;;;;;;;;;;;30.10;17.94;101667.81;5076370;28;1382;-43
2022/02/27 03:53:33;;;;;;;;;;;;;;;30.54;17.71;101662.72;5076715;28;765;-42
2022/02/27 03:55:59;;;;;;;;;;;;;;;30.48;17.58;101661.56;5076146;28;932;-42
2022/02/27 03:58:24;;;;;;;;;;;;;;;30.61;17.69;101657.41;5073772;28;819;-42
2022/02/27 04:00:49;;;;;;;;;;;;;;;30.63;17.44;101648.03;5074024;28;827;-43
2022/02/27 04:03:15;;;;;;;;;;;;;;;30.73;17.54;101644.22;5076625;28;877;-42
2022/02/27 04:05:40;;;;;;;;;;;;;;;29.66;18.33;101640.28;5076106;28;837;-42
2022/02/27 04:08:05;;;;;;;;;;;;;;;28.97;19.26;101644.47;5076633;28;1943;-42
2022/02/27 04:10:31;;;;;;;;;;;;;;;29.57;18.85;101650.31;5074302;28;1135;-42
2022/02/27 04:12:56;;;;;;;;;;;;;;;30.42;17.94;101651.47;5076033;28;921;-42
2022/02/27 04:15:21;;;;;;;;;;;;;;;30.36;18.11;101658.47;5073954;28;839;-42
2022/02/27 04:17:46;;;;;;;;;;;;;;;30.54;18.15;101660.84;5074843;28;1015;-42
2022/02/27 04:20:12;;;;;;;;;;;;;;;30.91;17.76;101657.47;5075901;28;960;-42
2022/02/27 04:22:37;;;;;;;;;;;;;;;30.60;17.90;101672.84;5076143;28;783;-42
2022/02/27 04:25:03;;;;;;;;;;;;;;;30.37;18.50;101665.59;5078519;28;847;-42
2022/02/27 04:27:28;;;;;;;;;;;;;;;31.09;17.98;101667.09;5080270;28;1889;-41
2022/02/27 04:29:53;;;;;;;;;;;;;;;31.23;17.39;101676.28;5080524;28;1023;-42
2022/02/27 04:32:19;;;;;;;;;;;;;;;31.48;17.25;101676.81;5072854;28;1244;-42
2022/02/27 04:34:44;;;;;;;;;;;;;;;30.87;17.75;101673.28;5080010;28;790;-42
2022/02/27 04:37:09;;;;;;;;;;;;;;;31.00;17.67;101680.78;5074942;28;911;-42
2022/02/27 04:39:34;;;;;;;;;;;;;;;30.54;18.21;101684.44;5079697;28;864;-42
2022/02/27 04:42:00;;;;;;;;;;;;;;;30.01;18.20;101685.19;5079768;28;833;-43
2022/02/27 04:44:25;;;;;;;;;;;;;;;28.63;17.23;101678.03;5080217;28;792;-42
2022/02/27 04:46:50;;;;;;;;;;;;;;;27.38;18.29;101674.06;5077953;28;1902;-42
2022/02/27 04:49:16;;;;;;;;;;;;;;;26.74;18.71;101668.94;5080004;28;893;-42
2022/02/27 04:51:41;;;;;;;;;;;;;;;27.34;19.10;101669.97;5072212;28;1364;-43
2022/02/27 04:54:06;;;;;;;;;;;;;;;28.39;18.67;101667.06;5082703;28;1375;-43
2022/02/27 04:56:31;;;;;;;;;;;;;;;28.87;18.01;101665.47;5082071;28;1495;-42
2022/02/27 04:58:57;;;;;;;;;;;;;;;28.51;17.71;101664.81;5083494;28;1214;-43
2022/02/27 05:01:22;;;;;;;;;;;;;;;29.11;17.84;101659.19;5084951;28;1119;-43
2022/02/27 05:03:47;;;;;;;;;;;;;;;29.27;17.65;101670.94;5078137;28;1241;-42
2022/02/27 05:06:14;;;;;;;;;;;;;;;29.49;17.48;101666.63;5081757;28;825;-43
2022/02/27 05:08:39;;;;;;;;;;;;;;;29.73;17.12;101672.13;5079389;28;1913;-44
2022/02/27 05:11:05;;;;;;;;;;;;;;;29.63;17.69;101665.06;5085002;28;1360;-41
2022/02/27 05:13:30;;;;;;;;;;;;;;;28.29;19.43;101674.47;5084642;28;1309;-41
2022/02/27 05:15:55;;;;;;;;;;;;;;;29.08;18.64;101676.59;5080543;28;1582;-42
2022/02/27 05:18:20;;;;;;;;;;;;;;;29.58;18.51;101678.25;5081743;28;1220;-42
2022/02/27 05:20:46;;;;;;;;;;;;;;;29.72;18.51;101689.41;5083686;28;1700;-42
2022/02/27 05:23:11;;;;;;;;;;;;;;;29.85;18.22;101696.97;5082407;28;778;-42
2022/02/27 05:25:36;;;;;;;;;;;;;;;29.97;18.18;101700.97;5079569;28;1382;-42
2022/02/27 05:28:02;;;;;;;;;;;;;;;29.25;18.88;101697.38;5080913;28;1902;-42
2022/02/27 05:30:27;;;;;;;;;;;;;;;28.60;19.44;101714.41;5078803;28;1317;-42
2022/02/27 05:32:52;;;;;;;;;;;;;;;28.61;19.62;101718.81;5082278;28;1523;-41
2022/02/27 05:35:18;;;;;;;;;;;;;;;28.89;19.70;101717.59;5071605;28;1217;-42
2022/02/27 05:37:43;;;;;;;;;;;;;;;29.19;19.33;101732.31;5076170;28;1150;-42
2022/02/27 05:40:09;;;;;;;;;;;;;;;28.57;19.79;101733.69;5072108;28;1230;-42
2022/02/27 05:42:34;;;;;;;;;;;;;;;28.09;20.03;101732.41;5079244;28;1297;-42
2022/02/27 05:44:59;;;;;;;;;;;;;;;27.94;20.28;101748.47;5078153;28;1418;-41
2022/02/27 05:47:25;;;;;;;;;;;;;;;28.21;20.33;101741.06;5074822;28;1902;-41
2022/02/27 05:49:50;;;;;;;;;;;;;;;27.86;20.45;101746.56;5077674;28;853;-42
2022/02/27 05:55:18;;;;;;;;;;;;;;;28.19;20.44;101737.69;5078410;28;789;-41
2022/02/27 05:57:43;;;;;;;;;;;;;;;28.14;20.21;101731.09;5079024;28;746;-41
2022/02/27 06:00:09;;;;;;;;;;;;;;;28.68;20.17;101736.06;5078488;28;742;-41
2022/02/27 06:02:34;;;;;;;;;;;;;;;29.03;19.91;101740.47;5077951;28;888;-41
2022/02/27 06:05:00;;;;;;;;;;;;;;;29.05;19.62;101747.38;5078637;28;871;-41
2022/02/27 06:07:25;;;;;;;;;;;;;;;28.87;19.79;101744.00;5077237;28;1906;-41
2022/02/27 06:09:50;;;;;;;;;;;;;;;28.45;20.17;101739.44;5078365;28;726;-42
2022/02/27 06:12:15;;;;;;;;;;;;;;;27.96;20.61;101740.19;5078452;28;816;-42
2022/02/27 06:14:41;;;;;;;;;;;;;;;28.34;20.80;101737.91;5078361;28;1356;-42
2022/02/27 06:17:06;;;;;;;;;;;;;;;28.60;20.31;101736.91;5077293;28;1418;-42
2022/02/27 06:19:32;;;;;;;;;;;;;;;28.20;20.20;101731.25;5072100;28;1391;-41
2022/02/27 06:21:57;;;;;;;;;;;;;;;28.91;20.02;101731.81;5083635;28;828;-41
2022/02/27 06:24:22;;;;;;;;;;;;;;;29.72;19.02;101747.22;5077649;28;1255;-41
2022/02/27 06:26:47;;;;;;;;;;;;;;;29.84;18.84;101741.38;5071691;28;1898;-41
2022/02/27 06:29:13;;;;;;;;;;;;;;;29.96;18.89;101737.25;5077551;28;857;-42
2022/02/27 06:31:38;;;;;;;;;;;;;;;28.79;19.93;101736.72;5077219;28;833;-41
2022/02/27 06:34:03;;;;;;;;;;;;;;;28.23;20.43;101725.50;5077646;28;1254;-42
2022/02/27 06:36:29;;;;;;;;;;;;;;;28.14;20.81;101736.50;5077599;28;892;-42
2022/02/27 06:38:54;;;;;;;;;;;;;;;27.98;21.02;101733.59;5078056;28;778;-42
2022/02/27 06:41:20;;;;;;;;;;;;;;;27.90;20.81;101740.81;5077860;28;834;-41
2022/02/27 06:43:46;;;;;;;;;;;;;;;27.81;20.77;101742.66;5075617;28;848;-42
2022/02/27 06:46:11;;;;;;;;;;;;;;;27.73;21.33;101743.47;5071829;28;1467;-41
2022/02/27 06:48:36;;;;;;;;;;;;;;;27.43;21.64;101746.50;5078264;28;1902;-41
2022/02/27 06:51:02;;;;;;;;;;;;;;;27.34;21.44;101747.50;5080597;28;780;-42
2022/02/27 06:53:27;;;;;;;;;;;;;;;27.33;21.71;101743.06;5077408;28;865;-41
2022/02/27 06:55:52;;;;;;;;;;;;;;;27.15;22.11;101749.41;5077254;28;805;-41
2022/02/27 06:58:18;;;;;;;;;;;;;;;27.16;21.85;101750.25;5074831;28;864;-41
2022/02/27 07:00:43;;;;;;;;;;;;;;;27.84;21.45;101751.28;5077156;28;916;-42
2022/02/27 07:03:10;;;;;;;;;;;;;;;28.04;21.10;101747.47;5077417;28;785;-41
2022/02/27 07:05:35;;;;;;;;;;;;;;;27.92;20.85;101755.03;5077002;28;908;-41
2022/02/27 07:08:00;;;;;;;;;;;;;;;28.21;20.91;101759.19;5092019;28;1889;-41
2022/02/27 07:10:26;;;;;;;;;;;;;;;29.41;19.65;101769.66;5076964;28;853;-42
2022/02/27 07:12:51;;;;;;;;;;;;;;;29.74;19.19;101775.00;5077089;28;776;-42
2022/02/27 07:15:18;;;;;;;;;;;;;;;30.10;18.90;101775.47;5076773;28;861;-41
2022/02/27 07:17:43;;;;;;;;;;;;;;;29.85;19.17;101770.19;5077260;28;785;-42
2022/02/27 07:20:08;;;;;;;;;;;;;;;29.40;19.45;101776.94;5076660;28;920;-41
2022/02/27 07:22:34;;;;;;;;;;;;;;;29.74;19.26;101777.72;5076699;28;796;-41
2022/02/27 07:24:59;;;;;;;;;;;;;;;29.77;19.60;101777.34;5076847;28;777;-41
2022/02/27 07:27:25;;;;;;;;;;;;;;;29.80;19.49;101777.00;5076479;28;1949;-41
2022/02/27 07:29:50;;;;;;;;;;;;;;;29.88;18.95;101770.69;5076971;28;836;-41
2022/02/27 07:32:15;;;;;;;;;;;;;;;29.99;18.82;101774.88;5070156;28;1197;-41
2022/02/27 07:34:41;;;;;;;;;;;;;;;29.72;19.02;101765.34;5076286;28;906;-41
2022/02/27 07:37:06;;;;;;;;;;;;;;;29.32;19.59;101763.41;5080504;28;931;-42
2022/02/27 07:39:32;;;;;;;;;;;;;;;29.28;19.52;101762.91;5076495;28;1231;-42
2022/02/27 07:41:57;;;;;;;;;;;;;;;29.90;19.18;101765.94;5076006;28;1165;-42
2022/02/27 07:44:23;;;;;;;;;;;;;;;30.16;18.67;101764.75;5078763;28;1265;-42
2022/02/27 07:46:48;;;;;;;;;;;;;;;30.49;18.50;101766.44;5071862;28;1901;-41
2022/02/27 07:49:13;;;;;;;;;;;;;;;29.64;19.43;101760.81;5070114;28;1166;-41
2022/02/27 07:51:39;;;;;;;;;;;;;;;29.43;19.68;101757.63;5076292;28;844;-41
2022/02/27 07:54:04;;;;;;;;;;;;;;;29.80;19.57;101763.44;5076374;28;912;-41
2022/02/27 07:56:29;;;;;;;;;;;;;;;29.93;19.29;101759.28;5076597;28;733;-42
2022/02/27 07:58:55;;;;;;;;;;;;;;;30.38;18.86;101756.03;5075670;28;879;-42
2022/02/27 08:01:20;;;;;;;;;;;;;;;30.27;18.93;101763.53;5073866;28;1178;-42
2022/02/27 08:03:46;;;;;;;;;;;;;;;29.67;19.57;101764.00;5076535;28;863;-41
2022/02/27 08:06:11;;;;;;;;;;;;;;;29.50;19.95;101773.19;5078173;28;865;-41
2022/02/27 08:08:36;;;;;;;;;;;;;;;29.85;19.59;101768.31;5082240;28;1914;-42
2022/02/27 08:11:02;;;;;;;;;;;;;;;29.63;19.66;101764.53;5078351;28;1535;-42
2022/02/27 08:13:27;;;;;;;;;;;;;;;29.69;19.62;101751.13;5071192;28;1410;-41
2022/02/27 08:15:57;;;;;;;;;;;;;;;30.17;19.16;101744.75;5075968;28;1315;-43
2022/02/27 08:18:23;;;;;;;;;;;;;;;28.98;19.71;101740.13;5078239;28;1145;-41
2022/02/27 08:20:48;;;;;;;;;;;;;;;28.14;21.02;101736.50;5076298;28;906;-42
2022/02/27 08:23:14;;;;;;;;;;;;;;;28.89;20.27;101723.88;5076014;28;916;-42
2022/02/27 08:25:39;;;;;;;;;;;;;;;29.40;19.62;101724.59;5074949;28;826;-41
2022/02/27 08:28:04;;;;;;;;;;;;;;;29.25;19.76;101709.06;5074954;28;1963;-42
2022/02/27 08:30:29;;;;;;;;;;;;;;;28.76;20.15;101718.94;5088014;28;839;-41
2022/02/27 08:32:55;;;;;;;;;;;;;;;28.47;20.77;101717.63;5073973;28;1198;-41
2022/02/27 08:35:20;;;;;;;;;;;;;;;29.45;19.77;101709.50;5075719;28;783;-41
2022/02/27 08:37:45;;;;;;;;;;;;;;;29.39;20.05;101710.22;5076068;28;928;-41
2022/02/27 08:40:11;;;;;;;;;;;;;;;29.07;20.31;101712.00;5075665;28;820;-41
2022/02/27 08:42:36;;;;;;;;;;;;;;;28.62;20.85;101712.38;5076092;28;829;-41
2022/02/27 08:45:01;;;;;;;;;;;;;;;29.05;21.84;101717.59;5076020;28;762;-41
2022/02/27 08:47:27;;;;;;;;;;;;;;;28.95;22.29;101720.47;5073934;28;1943;-42
2022/02/27 08:49:52;;;;;;;;;;;;;;;29.23;21.69;101721.13;5075679;28;822;-41
2022/02/27 08:52:17;;;;;;;;;;;;;;;29.11;20.89;101709.78;5075781;28;912;-41
2022/02/27 08:54:43;;;;;;;;;;;;;;;28.81;21.42;101705.75;5075347;28;1000;-42
2022/02/27 08:57:08;;;;;;;;;;;;;;;28.71;22.83;101700.50;5075785;28;880;-42
2022/02/27 08:59:33;;;;;;;;;;;;;;;29.44;21.88;101705.13;5075882;28;814;-41
2022/02/27 09:01:59;;;;;;;;;;;;;;;29.98;21.27;101699.09;5075540;28;1012;-41
2022/02/27 09:04:24;;;;;;;;;;;;;;;29.94;21.19;101690.47;5069720;28;861;-41
2022/02/27 09:06:49;;;;;;;;;;;;;;;29.30;20.53;101678.72;5072485;28;2013;-42
2022/02/27 09:09:16;;;;;;;;;;;;;;;28.76;21.36;101672.91;5074296;28;794;-42
2022/02/27 09:11:41;;;;;;;;;;;;;;;28.57;21.73;101674.13;5079139;28;1316;-41
2022/02/27 09:14:07;;;;;;;;;;;;;;;29.33;21.59;101681.09;5079468;28;907;-42
2022/02/27 09:16:32;;;;;;;;;;;;;;;29.81;20.99;101678.34;5077226;28;840;-41
2022/02/27 09:18:57;;;;;;;;;;;;;;;30.31;20.38;101672.56;5079534;28;826;-41
2022/02/27 09:21:23;;;;;;;;;;;;;;;29.85;20.03;101662.56;5079235;28;916;-43
2022/02/27 09:23:48;;;;;;;;;;;;;;;29.46;20.96;101670.53;5079452;28;821;-41
2022/02/27 09:26:13;;;;;;;;;;;;;;;29.64;21.32;101665.91;5081546;28;1411;-42
2022/02/27 09:28:39;;;;;;;;;;;;;;;29.90;20.76;101664.72;5079038;28;1925;-41
2022/02/27 09:31:04;;;;;;;;;;;;;;;30.13;20.55;101663.91;5073912;28;776;-41
2022/02/27 09:33:30;;;;;;;;;;;;;;;30.58;20.10;101668.63;5078990;28;1209;-42
2022/02/27 09:35:56;;;;;;;;;;;;;;;30.01;20.17;101660.75;5078597;28;848;-41
2022/02/27 09:38:21;;;;;;;;;;;;;;;29.92;20.56;101658.09;5079166;28;789;-41
2022/02/27 09:40:49;;;;;;;;;;;;;;;29.95;20.78;101659.59;5094015;28;874;-42
2022/02/27 09:43:16;;;;;;;;;;;;;;;30.18;20.47;101667.75;5076156;28;856;-42
2022/02/27 09:45:41;;;;;;;;;;;;;;;30.36;20.39;101666.63;5076721;28;895;-42
2022/02/27 09:48:07;;;;;;;;;;;;;;;30.45;19.86;101661.94;5077648;28;1910;-42
2022/02/27 09:50:34;;;;;;;;;;;;;;;30.21;20.50;101671.16;5077180;28;1143;-41
2022/02/27 09:53:00;;;;;;;;;;;;;;;30.02;20.78;101665.16;5077387;28;861;-42
2022/02/27 09:55:25;;;;;;;;;;;;;;;30.14;20.58;101676.44;5078586;28;821;-42
2022/02/27 09:57:50;;;;;;;;;;;;;;;30.46;20.04;101679.94;5078500;28;884;-42
2022/02/27 10:00:16;;;;;;;;;;;;;;;30.16;19.57;101669.78;5077155;28;1447;-41
2022/02/27 10:03:00;;;;;;;;;;;;;;;29.34;20.77;101669.25;5078138;28;927;-42
2022/02/27 10:05:25;;;;;;;;;;;;;;;29.15;21.31;101656.94;5078606;28;1018;-42
2022/02/27 10:07:58;;;;;;;;;;;;;;;29.99;20.25;101660.94;5075718;28;1968;-42
2022/02/27 10:10:23;;;;;;;;;;;;;;;30.23;19.89;101664.50;5078249;28;832;-41
2022/02/27 10:12:48;;;;;;;;;;;;;;;30.48;19.50;101661.56;5078562;28;950;-42
2022/02/27 10:15:15;;;;;;;;;;;;;;;29.21;20.28;101651.66;5078160;28;845;-42
2022/02/27 10:17:41;;;;;;;;;;;;;;;28.80;20.78;101655.31;5076388;28;798;-42
2022/02/27 10:20:07;;;;;;;;;;;;;;;29.19;20.78;101648.31;5078189;28;1159;-42
2022/02/27 10:22:33;;;;;;;;;;;;;;;29.66;20.12;101645.72;5071876;28;929;-42
2022/02/27 10:24:59;;;;;;;;;;;;;;;30.13;19.69;101640.31;5078275;28;765;-41
2022/02/27 10:27:37;;;;;;;;;;;;;;;30.42;19.28;101646.88;5076291;28;1894;-42
2022/02/27 10:30:11;;;;;;;;;;;;;;;29.17;20.30;101630.53;5077861;28;728;-42
2022/02/27 10:32:38;;;;;;;;;;;;;;;29.16;20.57;101628.84;5074093;28;1080;-41
2022/02/27 10:35:03;;;;;;;;;;;;;;;29.68;20.33;101621.13;5078033;28;852;-41
2022/02/27 10:37:28;;;;;;;;;;;;;;;29.85;20.16;101619.16;5077835;28;806;-41
2022/02/27 10:39:55;;;;;;;;;;;;;;;30.33;19.65;101612.69;5076070;28;966;-42
2022/02/27 10:42:27;;;;;;;;;;;;;;;30.61;19.26;101611.22;5077327;28;841;-42
2022/02/27 10:45:18;;;;;;;;;;;;;;;30.01;19.92;101610.03;5077599;28;892;-41
2022/02/27 10:47:43;;;;;;;;;;;;;;;29.83;20.20;101610.34;5074134;28;1961;-42
2022/02/27 10:50:10;;;;;;;;;;;;;;;30.18;20.01;101616.19;5077521;28;877;-42
2022/02/27 10:52:36;;;;;;;;;;;;;;;30.38;19.71;101617.59;5077766;28;812;-42
2022/02/27 10:55:06;;;;;;;;;;;;;;;30.62;19.37;101611.03;5077591;28;786;-41
2022/02/27 10:57:38;;;;;;;;;;;;;;;30.53;19.62;101614.88;5077342;28;845;-41
2022/02/27 11:00:13;;;;;;;;;;;;;;;30.31;19.90;101620.19;5077313;28;853;-42
2022/02/27 11:02:39;;;;;;;;;;;;;;;30.02;20.28;101616.31;5071597;28;949;-42
2022/02/27 11:05:10;;;;;;;;;;;;;;;30.19;20.12;101614.31;5077510;28;809;-42
2022/02/27 11:07:35;;;;;;;;;;;;;;;30.71;19.57;101591.94;5076828;28;1893;-42
2022/02/27 11:10:00;;;;;;;;;;;;;;;30.10;19.98;101607.25;5075432;28;900;-42
2022/02/27 11:12:26;;;;;;;;;;;;;;;30.08;19.92;101596.59;5072609;28;854;-41
2022/02/27 11:14:51;;;;;;;;;;;;;;;30.31;20.10;101596.59;5076241;28;859;-41
2022/02/27 11:17:16;;;;;;;;;;;;;;;30.09;20.47;101600.16;5071467;28;1139;-42
2022/02/27 11:19:42;;;;;;;;;;;;;;;30.27;20.17;101602.56;5076019;28;856;-42
2022/02/27 11:22:07;;;;;;;;;;;;;;;30.57;19.95;101597.19;5075496;28;1077;-42
2022/02/27 11:24:36;;;;;;;;;;;;;;;30.04;20.03;101607.00;5076614;28;832;-42
2022/02/27 11:27:02;;;;;;;;;;;;;;;29.96;20.12;101603.50;5076880;28;1897;-41
2022/02/27 11:29:28;;;;;;;;;;;;;;;30.15;20.42;101597.56;5075512;28;876;-41
2022/02/27 11:31:53;;;;;;;;;;;;;;;30.13;20.65;101596.06;5073770;28;1057;-42
2022/02/27 11:34:19;;;;;;;;;;;;;;;30.38;20.28;101590.44;5075894;28;829;-42
2022/02/27 11:36:49;;;;;;;;;;;;;;;30.35;19.81;101593.50;5076250;28;837;-42
2022/02/27 11:40:28;;;;;;;;;;;;;;;29.94;19.97;101599.09;5076516;28;849;-41
2022/02/27 11:41:59;;;;;;;;;;;;;;;29.92;19.32;101579.44;5076705;28;1324;-41
2022/02/27 11:44:35;;;;;;;;;;;;;;;29.54;19.55;101582.06;5070430;28;841;-41
2022/02/27 11:47:03;;;;;;;;;;;;;;;30.18;19.49;101586.31;5068194;28;1965;-41
2022/02/27 11:49:28;;;;;;;;;;;;;;;30.55;19.25;101574.81;5074450;28;1269;-41
2022/02/27 11:52:00;;;;;;;;;;;;;;;29.94;19.15;101582.81;5076320;28;1257;-42
2022/02/27 11:54:26;;;;;;;;;;;;;;;29.28;20.10;101581.34;5079854;28;798;-42
2022/02/27 11:56:57;;;;;;;;;;;;;;;28.96;20.40;101575.88;5076349;28;845;-42
2022/02/27 11:59:23;;;;;;;;;;;;;;;28.85;20.52;101579.84;5076282;28;908;-42
2022/02/27 12:01:48;;;;;;;;;;;;;;;28.71;20.91;101567.84;5070818;28;1149;-41
2022/02/27 12:04:19;;;;;;;;;;;;;;;29.03;20.60;101577.94;5075818;28;849;-42
2022/02/27 12:06:56;;;;;;;;;;;;;;;28.99;20.66;101574.75;5076253;28;1953;-42
2022/02/27 12:09:21;;;;;;;;;;;;;;;29.32;20.55;101571.88;5076090;28;1047;-41
2022/02/27 12:11:47;;;;;;;;;;;;;;;30.00;19.71;101570.38;5076485;28;901;-41
2022/02/27 12:14:12;;;;;;;;;;;;;;;29.99;19.55;101574.13;5076567;28;783;-42
2022/02/27 12:16:44;;;;;;;;;;;;;;;30.08;19.48;101569.47;5075488;28;970;-41
2022/02/27 12:19:22;;;;;;;;;;;;;;;30.34;19.13;101554.66;5076179;28;1095;-41
2022/02/27 12:21:49;;;;;;;;;;;;;;;29.93;19.20;101551.28;5076102;28;798;-42
2022/02/27 12:24:20;;;;;;;;;;;;;;;29.37;19.74;101538.81;5076098;28;765;-41
2022/02/27 12:26:48;;;;;;;;;;;;;;;30.02;19.71;101545.78;5076216;28;1960;-42
2022/02/27 12:29:23;;;;;;;;;;;;;;;30.42;19.11;101530.16;5076294;28;762;-42
2022/02/27 12:31:48;;;;;;;;;;;;;;;29.67;19.40;101533.53;5075578;28;1552;-41
2022/02/27 12:34:18;;;;;;;;;;;;;;;29.08;20.01;101530.31;5075770;28;1524;-42
2022/02/27 12:36:43;;;;;;;;;;;;;;;29.32;20.15;101522.22;5075928;28;1161;-42
2022/02/27 12:39:09;;;;;;;;;;;;;;;29.38;19.89;101532.34;5076065;28;1048;-42
2022/02/27 12:41:37;;;;;;;;;;;;;;;30.00;19.31;101513.41;5069295;28;805;-41
2022/02/27 12:44:03;;;;;;;;;;;;;;;30.49;18.95;101515.81;5075783;28;1488;-41
2022/02/27 12:46:28;;;;;;;;;;;;;;;29.67;19.61;101511.84;5073349;28;1619;-41
2022/02/27 12:51:38;;;;;;;;;;;;;;;29.82;19.86;101514.59;5079849;28;730;-42